createdAt,value
2023-05-16T00:01:45.333Z,13.05
2023-05-16T00:04:13.995Z,10.70
2023-05-16T00:06:42.181Z,5.45
2023-05-16T00:09:10.377Z,9.45
2023-05-16T00:11:38.354Z,16.15
2023-05-16T00:14:07.915Z,14.05
2023-05-16T00:16:37.186Z,9.30
2023-05-16T00:19:05.351Z,11.02
2023-05-16T00:21:33.373Z,14.38
2023-05-16T00:24:01.392Z,6.35
2023-05-16T00:26:29.387Z,7.53
2023-05-16T00:28:57.352Z,5.75
2023-05-16T00:31:26.946Z,7.88
2023-05-16T00:33:55.013Z,7.55
2023-05-16T00:36:23.973Z,11.20
2023-05-16T00:38:52.090Z,7.90
2023-05-16T00:41:20.082Z,21.40
2023-05-16T00:43:48.093Z,6.22
2023-05-16T00:46:16.466Z,8.77
2023-05-16T00:48:46.173Z,5.07
2023-05-16T00:51:14.179Z,11.35
2023-05-16T00:53:42.385Z,6.38
2023-05-16T00:56:10.757Z,10.60
2023-05-16T00:58:38.987Z,6.90
2023-05-16T01:01:08.109Z,9.95
2023-05-16T01:03:36.687Z,5.22
2023-05-16T01:06:06.834Z,11.63
2023-05-16T01:08:35.089Z,6.50
2023-05-16T01:11:09.424Z,5.47
2023-05-16T01:13:46.610Z,8.55
2023-05-16T01:16:23.572Z,5.07
2023-05-16T01:18:58.998Z,12.40
2023-05-16T01:21:43.699Z,7.65
2023-05-16T01:24:16.265Z,7.95
2023-05-16T01:26:47.954Z,14.35
2023-05-16T01:29:17.025Z,15.25
2023-05-16T01:31:45.096Z,13.85
2023-05-16T01:34:13.231Z,14.27
2023-05-16T01:36:49.468Z,10.77
2023-05-16T01:39:23.726Z,16.48
2023-05-16T01:42:02.171Z,12.05
2023-05-16T01:44:35.071Z,9.13
2023-05-16T01:47:06.253Z,9.13
2023-05-16T01:49:39.382Z,5.95
2023-05-16T01:52:18.037Z,6.20
2023-05-16T01:54:49.748Z,8.48
2023-05-16T01:57:19.801Z,10.93
2023-05-16T01:59:48.463Z,7.55
2023-05-16T02:02:19.555Z,8.77
2023-05-16T02:04:47.964Z,8.52
2023-05-16T02:07:16.209Z,7.68
2023-05-16T02:09:44.192Z,10.45
2023-05-16T02:12:12.114Z,9.48
2023-05-16T02:14:41.465Z,13.75
2023-05-16T02:17:09.534Z,15.48
2023-05-16T02:19:37.551Z,9.70
2023-05-16T02:22:05.740Z,11.43
2023-05-16T02:24:34.075Z,17.70
2023-05-16T02:27:02.535Z,10.27
2023-05-16T02:29:30.742Z,10.70
2023-05-16T02:32:00.237Z,10.13
2023-05-16T02:34:28.560Z,12.70
2023-05-16T02:36:56.600Z,10.30
2023-05-16T02:39:24.523Z,10.80
2023-05-16T02:41:52.495Z,8.40
2023-05-16T02:44:20.439Z,13.48
2023-05-16T02:46:48.506Z,14.38
2023-05-16T02:49:17.964Z,11.38
2023-05-16T02:51:45.951Z,21.13
2023-05-16T02:54:14.036Z,15.32
2023-05-16T02:56:42.027Z,13.60
2023-05-16T02:59:10.158Z,18.90
2023-05-16T03:01:38.354Z,22.45
2023-05-16T03:04:06.547Z,18.88
2023-05-16T03:06:36.036Z,19.02
2023-05-16T03:09:04.113Z,16.83
2023-05-16T03:11:32.035Z,23.05
2023-05-16T03:14:01.756Z,19.90
2023-05-16T03:16:30.680Z,22.88
2023-05-16T03:18:58.808Z,33.58
2023-05-16T03:21:27.384Z,30.63
2023-05-16T03:23:56.873Z,26.90
2023-05-16T03:26:24.959Z,25.23
2023-05-16T03:28:53.182Z,21.38
2023-05-16T03:31:21.295Z,24.73
2023-05-16T03:33:49.416Z,35.05
2023-05-16T03:36:17.506Z,23.63
2023-05-16T03:38:45.498Z,27.63
2023-05-16T03:41:14.853Z,26.05
2023-05-16T03:43:42.803Z,23.58
2023-05-16T03:46:10.907Z,26.05
2023-05-16T03:48:38.853Z,25.35
2023-05-16T03:51:07.111Z,31.90
2023-05-16T03:53:35.064Z,23.35
2023-05-16T03:56:04.198Z,29.30
2023-05-16T03:58:33.577Z,27.60
2023-05-16T04:01:01.563Z,37.30
2023-05-16T04:03:30.348Z,32.05
2023-05-16T04:05:58.921Z,24.92
2023-05-16T04:08:26.932Z,27.48
2023-05-16T04:10:54.898Z,36.55
2023-05-16T04:13:23.094Z,34.70
2023-05-16T04:15:53.633Z,41.80
2023-05-16T04:18:22.444Z,37.35
2023-05-16T04:20:51.774Z,34.70
2023-05-16T04:23:20.598Z,36.65
2023-05-16T04:25:48.721Z,36.22
2023-05-16T04:28:16.815Z,38.55
2023-05-16T04:30:44.746Z,39.15
2023-05-16T04:33:14.125Z,35.42
2023-05-16T04:35:42.210Z,33.95
2023-05-16T04:38:10.195Z,39.08
2023-05-16T04:40:38.154Z,34.35
2023-05-16T04:43:06.770Z,34.10
2023-05-16T04:45:36.726Z,33.28
2023-05-16T04:48:06.117Z,27.88
2023-05-16T04:50:35.577Z,27.77
2023-05-16T04:53:03.509Z,29.30
2023-05-16T04:55:31.729Z,25.65
2023-05-16T04:57:59.784Z,32.42
2023-05-16T05:03:54.241Z,36.47
2023-05-16T05:06:23.646Z,35.75
2023-05-16T05:08:51.637Z,32.22
2023-05-16T05:11:19.622Z,26.17
2023-05-16T05:13:47.544Z,26.95
2023-05-16T05:16:15.492Z,26.73
2023-05-16T05:18:44.600Z,33.75
2023-05-16T05:21:12.705Z,34.47
2023-05-16T05:23:42.040Z,31.00
2023-05-16T05:26:10.052Z,34.17
2023-05-16T05:28:39.394Z,28.67
2023-05-16T05:31:08.331Z,37.97
2023-05-16T05:33:36.397Z,36.15
2023-05-16T05:36:04.560Z,33.08
2023-05-16T05:38:32.777Z,30.23
2023-05-16T05:41:02.087Z,32.03
2023-05-16T05:43:30.076Z,31.00
2023-05-16T05:45:58.127Z,35.75
2023-05-16T05:48:26.177Z,36.95
2023-05-16T05:50:54.287Z,51.92
2023-05-16T05:53:22.310Z,50.25
2023-05-16T05:55:50.312Z,59.45
2023-05-16T05:58:19.671Z,65.03
2023-05-16T06:00:47.676Z,58.38
2023-05-16T06:03:16.784Z,64.07
2023-05-16T06:05:45.297Z,66.85
2023-05-16T06:08:13.279Z,75.55
2023-05-16T06:10:41.430Z,65.20
2023-05-16T06:13:09.411Z,67.80
2023-05-16T06:15:38.779Z,68.22
2023-05-16T06:18:06.902Z,69.50
2023-05-16T06:20:35.020Z,64.47
2023-05-16T06:23:02.997Z,68.05
2023-05-16T06:25:31.155Z,67.50
2023-05-16T06:27:59.100Z,66.50
2023-05-16T06:30:27.079Z,65.72
2023-05-16T06:32:56.509Z,69.40
2023-05-16T06:35:28.996Z,70.57
2023-05-16T06:37:57.206Z,67.18
2023-05-16T06:40:25.142Z,66.50
2023-05-16T06:42:53.153Z,67.47
2023-05-16T06:45:21.120Z,70.82
2023-05-16T06:47:49.196Z,61.95
2023-05-16T06:50:18.729Z,71.22
2023-05-16T06:52:46.750Z,65.30
2023-05-16T06:55:14.914Z,62.00
2023-05-16T06:57:42.900Z,62.40
2023-05-16T07:00:11.991Z,63.88
2023-05-16T07:02:40.085Z,62.83
2023-05-16T07:05:08.687Z,57.58
2023-05-16T07:07:38.138Z,66.43
2023-05-16T07:10:06.680Z,65.20
2023-05-16T07:12:34.788Z,74.15
2023-05-16T07:15:02.804Z,65.70
2023-05-16T07:17:30.831Z,58.08
2023-05-16T07:19:58.911Z,70.72
2023-05-16T07:22:27.007Z,63.58
2023-05-16T07:24:57.366Z,55.30
2023-05-16T07:27:25.368Z,62.05
2023-05-16T07:29:53.386Z,60.83
2023-05-16T07:32:21.526Z,68.10
2023-05-16T07:34:49.729Z,60.38
2023-05-16T07:37:18.594Z,63.17
2023-05-16T07:39:46.604Z,61.50
2023-05-16T07:42:15.960Z,66.70
2023-05-16T07:44:43.921Z,67.90
2023-05-16T07:47:11.906Z,62.33
2023-05-16T07:49:40.124Z,55.55
2023-05-16T07:52:08.413Z,60.42
2023-05-16T07:54:37.542Z,66.93
2023-05-16T07:57:05.835Z,61.05
2023-05-16T07:59:35.274Z,57.60
2023-05-16T08:02:03.601Z,60.92
2023-05-16T08:04:31.562Z,66.53
2023-05-16T08:06:59.552Z,56.13
2023-05-16T08:09:27.645Z,58.20
2023-05-16T08:11:55.744Z,60.22
2023-05-16T08:14:23.770Z,64.53
2023-05-16T08:16:53.164Z,59.60
2023-05-16T08:19:21.232Z,57.58
2023-05-16T08:21:49.324Z,53.83
2023-05-16T08:24:18.414Z,59.70
2023-05-16T08:26:46.550Z,49.25
2023-05-16T08:29:14.759Z,55.00
2023-05-16T08:31:42.948Z,54.00
2023-05-16T08:34:12.372Z,44.85
2023-05-16T08:36:40.475Z,53.15
2023-05-16T08:39:10.663Z,43.70
2023-05-16T08:41:38.759Z,43.92
2023-05-16T08:44:08.058Z,43.20
2023-05-16T08:46:38.168Z,42.30
2023-05-16T08:49:08.167Z,45.92
2023-05-16T08:51:39.029Z,42.47
2023-05-16T08:54:13.659Z,49.78
2023-05-16T08:56:42.913Z,50.75
2023-05-16T08:59:12.590Z,42.15
2023-05-16T09:01:40.855Z,45.50
2023-05-16T09:04:10.610Z,38.85
2023-05-16T09:06:40.172Z,45.05
2023-05-16T09:09:13.070Z,44.08
2023-05-16T09:11:41.177Z,40.97
2023-05-16T09:14:09.161Z,45.10
2023-05-16T09:16:37.184Z,45.35
2023-05-16T09:19:05.300Z,39.97
2023-05-16T09:21:34.649Z,43.50
2023-05-16T09:24:06.526Z,39.17
2023-05-16T09:26:35.239Z,41.00
2023-05-16T09:29:03.466Z,38.67
2023-05-16T09:31:36.948Z,44.72
2023-05-16T09:34:05.928Z,53.25
2023-05-16T09:36:34.512Z,40.95
2023-05-16T09:39:02.698Z,43.20
2023-05-16T09:41:35.208Z,36.33
2023-05-16T09:44:06.239Z,41.50
2023-05-16T09:46:36.017Z,44.17
2023-05-16T09:49:04.841Z,40.05
2023-05-16T09:51:33.585Z,54.72
2023-05-16T09:54:01.702Z,44.08
2023-05-16T09:56:31.014Z,43.38
2023-05-16T09:58:59.043Z,45.20
2023-05-16T10:01:27.333Z,38.20
2023-05-16T10:03:55.536Z,38.80
2023-05-16T10:06:25.223Z,41.03
2023-05-16T10:08:53.398Z,35.38
2023-05-16T10:11:21.806Z,42.58
2023-05-16T10:13:53.534Z,42.30
2023-05-16T10:16:24.585Z,41.42
2023-05-16T10:18:53.559Z,44.40
2023-05-16T10:21:24.385Z,37.33
2023-05-16T10:23:54.180Z,48.90
2023-05-16T10:26:23.746Z,40.95
2023-05-16T10:28:55.162Z,43.50
2023-05-16T10:31:24.810Z,45.08
2023-05-16T10:33:53.214Z,43.80
2023-05-16T10:36:21.893Z,37.58
2023-05-16T10:38:54.494Z,37.78
2023-05-16T10:41:23.155Z,35.63
2023-05-16T10:44:00.002Z,32.30
2023-05-16T10:46:29.442Z,40.22
2023-05-16T10:48:58.714Z,37.78
2023-05-16T10:51:39.100Z,34.35
2023-05-16T10:54:09.624Z,29.30
2023-05-16T10:56:37.936Z,29.45
2023-05-16T10:59:24.987Z,25.88
2023-05-16T11:01:54.235Z,28.13
2023-05-16T11:04:22.347Z,24.05
2023-05-16T11:06:54.820Z,23.30
2023-05-16T11:09:28.351Z,24.75
2023-05-16T11:12:03.472Z,17.65
2023-05-16T11:14:47.119Z,20.23
2023-05-16T11:17:16.403Z,12.27
2023-05-16T11:19:46.237Z,13.75
2023-05-16T11:22:30.198Z,14.55
2023-05-16T11:25:00.541Z,10.68
2023-05-16T11:27:30.983Z,9.07
2023-05-16T11:30:12.023Z,11.20
2023-05-16T11:32:41.289Z,13.63
2023-05-16T11:35:14.466Z,17.05
2023-05-16T11:37:44.012Z,12.18
2023-05-16T11:40:14.677Z,12.00
2023-05-16T11:42:44.780Z,12.88
2023-05-16T11:45:17.435Z,14.52
2023-05-16T11:47:47.686Z,12.02
2023-05-16T11:50:17.697Z,9.55
2023-05-16T11:52:48.369Z,16.50
2023-05-16T11:55:32.281Z,9.98
2023-05-16T11:58:03.476Z,7.45
2023-05-16T12:00:32.857Z,12.82
2023-05-16T12:03:04.766Z,14.77
2023-05-16T12:05:34.778Z,10.82
2023-05-16T12:08:04.882Z,10.07
2023-05-16T12:10:34.745Z,9.73
2023-05-16T12:13:04.077Z,12.90
2023-05-16T12:15:33.567Z,12.23
2023-05-16T12:18:02.590Z,12.93
2023-05-16T12:20:31.602Z,17.65
2023-05-16T12:23:00.484Z,15.10
2023-05-16T12:25:31.118Z,11.68
2023-05-16T12:28:00.953Z,9.13
2023-05-16T12:30:30.726Z,13.13
2023-05-16T12:33:02.193Z,8.23
2023-05-16T12:35:33.889Z,7.03
2023-05-16T12:38:04.984Z,8.10
2023-05-16T12:40:33.151Z,7.40
2023-05-16T12:43:01.621Z,6.03
2023-05-16T12:45:29.746Z,16.08
2023-05-16T12:47:59.221Z,13.20
2023-05-16T12:50:28.619Z,8.88
2023-05-16T12:53:01.465Z,9.63
2023-05-16T12:55:29.486Z,10.85
2023-05-16T12:57:58.301Z,7.72
2023-05-16T13:00:26.574Z,11.77
2023-05-16T13:02:54.864Z,14.45
2023-05-16T13:05:24.700Z,6.30
2023-05-16T13:07:52.901Z,16.33
2023-05-16T13:10:21.085Z,7.28
2023-05-16T13:12:49.109Z,8.48
2023-05-16T13:15:21.714Z,5.90
2023-05-16T13:17:49.895Z,10.02
2023-05-16T13:20:17.897Z,7.13
2023-05-16T13:22:49.570Z,2.90
2023-05-16T13:25:18.178Z,5.65
2023-05-16T13:27:48.186Z,3.92
2023-05-16T13:30:16.470Z,2.72
2023-05-16T13:32:49.606Z,11.48
2023-05-16T13:35:23.563Z,7.15
2023-05-16T13:37:53.109Z,3.45
2023-05-16T13:40:23.753Z,2.75
2023-05-16T13:42:51.825Z,7.00
2023-05-16T13:45:23.340Z,10.75
2023-05-16T13:47:53.048Z,4.68
2023-05-16T13:50:21.649Z,3.05
2023-05-16T13:52:52.032Z,2.83
2023-05-16T13:55:22.300Z,5.10
2023-05-16T13:57:51.775Z,2.88
2023-05-16T14:02:53.389Z,5.15
2023-05-16T14:05:21.591Z,4.60
2023-05-16T14:07:49.738Z,4.82
2023-05-16T14:10:17.721Z,2.72
2023-05-16T14:12:47.126Z,3.28
2023-05-16T14:15:21.345Z,3.65
2023-05-16T14:17:49.346Z,3.25
2023-05-16T14:20:17.421Z,7.28
2023-05-16T14:22:45.459Z,13.60
2023-05-16T14:25:13.377Z,3.33
2023-05-16T14:27:41.559Z,3.10
2023-05-16T14:30:12.036Z,10.35
2023-05-16T14:32:40.126Z,6.10
2023-05-16T14:35:09.592Z,5.60
2023-05-16T14:37:37.631Z,7.30
2023-05-16T14:40:06.947Z,3.15
2023-05-16T14:42:34.981Z,2.65
2023-05-16T14:45:03.195Z,3.25
2023-05-16T14:47:32.653Z,3.38
2023-05-16T14:50:01.338Z,7.18
2023-05-16T14:52:29.537Z,2.72
2023-05-16T14:54:57.519Z,4.32
2023-05-16T14:57:25.686Z,8.38
2023-05-16T14:59:53.912Z,4.95
2023-05-16T15:02:22.077Z,4.45
2023-05-16T15:04:51.866Z,4.28
2023-05-16T15:07:19.896Z,10.35
2023-05-16T15:09:47.916Z,6.07
2023-05-16T15:12:16.082Z,4.97
2023-05-16T15:14:44.074Z,9.35
2023-05-16T15:17:12.025Z,21.42
2023-05-16T15:19:40.008Z,14.10
2023-05-16T15:22:10.953Z,7.38
2023-05-16T15:24:38.962Z,3.35
2023-05-16T15:27:08.842Z,10.18
2023-05-16T15:29:36.975Z,26.17
2023-05-16T15:32:06.740Z,8.52
2023-05-16T15:34:36.356Z,6.78
2023-05-16T15:37:04.523Z,3.55
2023-05-16T15:39:34.109Z,6.25
2023-05-16T15:42:10.866Z,2.75
2023-05-16T15:44:40.108Z,6.18
2023-05-16T15:47:08.658Z,4.75
2023-05-16T15:49:36.817Z,7.75
2023-05-16T15:52:05.405Z,6.65
2023-05-16T15:54:35.011Z,5.57
2023-05-16T15:57:03.387Z,6.95
2023-05-16T15:59:31.347Z,7.35
2023-05-16T16:02:04.540Z,16.90
2023-05-16T16:04:34.617Z,9.98
2023-05-16T16:07:02.673Z,5.35
2023-05-16T16:09:31.619Z,5.38
2023-05-16T16:12:01.219Z,6.53
2023-05-16T16:14:29.269Z,7.85
2023-05-16T16:16:57.908Z,4.78
2023-05-16T16:19:26.798Z,6.85
2023-05-16T16:21:55.300Z,8.38
2023-05-16T16:24:23.398Z,11.73
2023-05-16T16:26:51.920Z,7.70
2023-05-16T16:29:21.283Z,8.60
2023-05-16T16:31:49.309Z,10.43
2023-05-16T16:34:23.101Z,8.82
2023-05-16T16:36:51.365Z,9.77
2023-05-16T16:39:19.593Z,6.20
2023-05-16T16:41:47.575Z,6.78
2023-05-16T16:44:15.730Z,12.20
2023-05-16T16:46:45.133Z,9.13
2023-05-16T16:49:13.128Z,15.00
2023-05-16T16:51:41.961Z,8.30
2023-05-16T16:54:09.930Z,4.75
2023-05-16T16:56:37.957Z,14.23
2023-05-16T16:59:05.946Z,8.25
2023-05-16T17:01:35.012Z,10.73
2023-05-16T17:04:04.579Z,16.00
2023-05-16T17:06:32.595Z,10.73
2023-05-16T17:09:03.475Z,10.50
2023-05-16T17:11:31.805Z,9.82
2023-05-16T17:14:00.079Z,12.43
2023-05-16T17:16:29.425Z,8.13
2023-05-16T17:18:57.683Z,11.13
2023-05-16T17:21:28.167Z,11.65
2023-05-16T17:23:58.225Z,9.82
2023-05-16T17:26:27.454Z,20.55
2023-05-16T17:28:56.488Z,12.25
2023-05-16T17:31:24.448Z,11.70
2023-05-16T17:33:53.331Z,8.07
2023-05-16T17:36:21.398Z,14.40
2023-05-16T17:38:50.780Z,10.68
2023-05-16T17:41:19.203Z,10.52
2023-05-16T17:43:47.350Z,7.82
2023-05-16T17:46:15.350Z,15.27
2023-05-16T17:48:43.848Z,10.25
2023-05-16T17:51:11.929Z,8.40
2023-05-16T17:53:39.921Z,13.05
2023-05-16T17:56:09.384Z,13.23
2023-05-16T17:58:37.446Z,9.80
2023-05-16T18:01:08.700Z,18.92
2023-05-16T18:03:37.542Z,11.18
2023-05-16T18:06:05.730Z,14.18
2023-05-16T18:08:33.752Z,16.30
2023-05-16T18:11:01.776Z,14.73
2023-05-16T18:13:31.252Z,12.98
2023-05-16T18:16:00.559Z,9.82
2023-05-16T18:18:28.748Z,5.82
2023-05-16T18:20:56.925Z,8.77
2023-05-16T18:23:25.455Z,7.80
2023-05-16T18:25:54.144Z,12.07
2023-05-16T18:28:22.267Z,18.02
2023-05-16T18:30:51.889Z,11.18
2023-05-16T18:33:19.951Z,6.88
2023-05-16T18:35:48.058Z,6.78
2023-05-16T18:38:28.330Z,6.63
2023-05-16T18:41:00.834Z,13.73
2023-05-16T18:43:31.092Z,8.77
2023-05-16T18:46:03.033Z,13.43
2023-05-16T18:48:38.179Z,9.05
2023-05-16T18:51:07.891Z,8.60
2023-05-16T18:53:36.010Z,14.43
2023-05-16T18:56:04.525Z,15.13
2023-05-16T18:58:32.528Z,7.47
2023-05-16T19:01:02.008Z,9.30
2023-05-16T19:03:30.049Z,7.28
2023-05-16T19:05:58.282Z,11.18
2023-05-16T19:08:31.333Z,10.00
2023-05-16T19:11:04.946Z,12.00
2023-05-16T19:13:34.882Z,11.93
2023-05-16T19:16:04.701Z,9.57
2023-05-16T19:18:35.300Z,8.15
2023-05-16T19:21:03.627Z,9.73
2023-05-16T19:23:31.886Z,13.55
2023-05-16T19:25:59.905Z,23.73
2023-05-16T19:28:27.910Z,15.00
2023-05-16T19:30:55.971Z,11.32
2023-05-16T19:33:26.385Z,19.00
2023-05-16T19:35:54.698Z,15.02
2023-05-16T19:38:24.549Z,14.05
2023-05-16T19:40:53.185Z,10.15
2023-05-16T19:43:21.160Z,13.75
2023-05-16T19:45:49.324Z,13.77
2023-05-16T19:48:17.444Z,9.27
2023-05-16T19:50:46.880Z,12.27
2023-05-16T19:53:14.885Z,20.33
2023-05-16T19:55:42.879Z,22.63
2023-05-16T19:58:10.969Z,5.35
2023-05-16T20:00:39.138Z,16.35
2023-05-16T20:03:07.240Z,9.40
2023-05-16T20:05:35.387Z,17.48
2023-05-16T20:08:05.696Z,21.60
2023-05-16T20:10:37.040Z,10.48
2023-05-16T20:13:05.109Z,11.15
2023-05-16T20:15:33.142Z,9.85
2023-05-16T20:18:01.718Z,13.35
2023-05-16T20:20:30.542Z,9.98
2023-05-16T20:22:58.569Z,15.32
2023-05-16T20:25:28.261Z,9.68
2023-05-16T20:27:57.840Z,21.85
2023-05-16T20:30:26.093Z,16.13
2023-05-16T20:32:54.195Z,19.27
2023-05-16T20:35:22.398Z,14.15
2023-05-16T20:37:50.444Z,7.25
2023-05-16T20:40:18.476Z,14.00
2023-05-16T20:42:47.979Z,16.48
2023-05-16T20:45:16.174Z,14.07
2023-05-16T20:47:44.375Z,16.33
2023-05-16T20:50:12.550Z,11.43
2023-05-16T20:52:40.573Z,13.57
2023-05-16T20:55:09.045Z,8.85
2023-05-16T20:57:37.071Z,22.58
2023-05-16T21:00:08.474Z,17.85
2023-05-16T21:02:36.653Z,23.52
2023-05-16T21:05:23.412Z,11.45
2023-05-16T21:07:53.045Z,23.52
2023-05-16T21:10:21.437Z,20.10
2023-05-16T21:12:50.278Z,10.00
2023-05-16T21:15:23.027Z,12.07
2023-05-16T21:17:51.675Z,9.65
2023-05-16T21:20:19.902Z,15.10
2023-05-16T21:22:47.904Z,16.83
2023-05-16T21:25:15.939Z,12.02
2023-05-16T21:27:43.945Z,16.27
2023-05-16T21:30:13.101Z,11.52
2023-05-16T21:32:42.540Z,14.38
2023-05-16T21:35:11.084Z,11.57
2023-05-16T21:37:39.084Z,11.48
2023-05-16T21:40:09.461Z,14.05
2023-05-16T21:42:37.748Z,10.65
2023-05-16T21:45:12.498Z,25.27
2023-05-16T21:47:40.565Z,11.43
2023-05-16T21:50:10.755Z,13.27
2023-05-16T21:52:39.053Z,9.77
2023-05-16T21:55:08.295Z,10.13
2023-05-16T21:57:36.455Z,18.98
2023-05-16T22:00:06.916Z,22.23
2023-05-16T22:02:35.030Z,15.57
2023-05-16T22:05:03.305Z,11.55
2023-05-16T22:07:32.746Z,12.77
2023-05-16T22:10:01.316Z,9.70
2023-05-16T22:12:30.272Z,15.50
2023-05-16T22:14:59.717Z,14.20
2023-05-16T22:17:29.313Z,17.33
2023-05-16T22:19:58.194Z,9.25
2023-05-16T22:22:26.266Z,10.63
2023-05-16T22:24:55.608Z,19.08
2023-05-16T22:27:23.628Z,17.88
2023-05-16T22:29:51.597Z,16.00
2023-05-16T22:32:19.593Z,15.45
2023-05-16T22:34:47.585Z,17.98
2023-05-16T22:37:16.191Z,10.00
2023-05-16T22:39:45.504Z,10.32
2023-05-16T22:42:15.087Z,9.63
2023-05-16T22:44:43.125Z,13.93
2023-05-16T22:47:11.817Z,13.40
2023-05-16T22:49:40.035Z,10.95
2023-05-16T22:52:08.291Z,18.70
2023-05-16T22:54:36.286Z,27.25
2023-05-16T22:57:05.677Z,21.75
2023-05-16T22:59:35.622Z,24.10
2023-05-16T23:02:04.417Z,24.17
2023-05-16T23:04:33.704Z,11.40
2023-05-16T23:07:02.326Z,9.73
2023-05-16T23:09:30.511Z,15.05
2023-05-16T23:11:59.336Z,17.08
2023-05-16T23:14:27.474Z,14.40
2023-05-16T23:16:57.176Z,24.33
2023-05-16T23:19:25.965Z,8.38
2023-05-16T23:21:54.797Z,16.42
2023-05-16T23:24:24.060Z,11.52
2023-05-16T23:26:52.849Z,10.02
2023-05-16T23:29:20.886Z,10.00
2023-05-16T23:31:49.753Z,22.92
2023-05-16T23:34:20.044Z,8.23
2023-05-16T23:36:48.924Z,11.68
2023-05-16T23:39:18.886Z,13.40
2023-05-16T23:41:47.578Z,4.75
2023-05-16T23:44:16.736Z,15.40
2023-05-16T23:46:46.158Z,15.15
2023-05-16T23:49:15.407Z,9.57
2023-05-16T23:51:57.358Z,13.98
2023-05-16T23:54:27.398Z,22.13
2023-05-16T23:56:55.370Z,13.35
2023-05-16T23:59:23.371Z,15.80
